KEND/END METAR and TAF weather

Enter ICAO airport designator
Station Type Date Time Source
KEND METAR 2021/05/15 00:56 UTC NOAA

KEND 150056Z AUTO 15015G19KT 10SM CLR 22/13 A3002 RMK AO2 SLP161 T02150126 $


Station Type Date Time Source
KEND Decoded METAR 2021/05/15 00:56 UTC NOAA

Vance Air Force Base / Enid, OK, United States (KEND) 36-20N 097-55W
May 14, 2021 - 08:56 PM EDT / 2021.05.15 0056 UTC
Wind: from the SSE (150 degrees) at 17 MPH (15 KT) gusting to 22 MPH (19 KT):0
Visibility: 10 mile(s):0
Sky conditions: clear
Temperature: 70.7 F (21.5 C)
Dew Point: 54.7 F (12.6 C)
Relative Humidity: 56%
Pressure (altimeter): 30.02 in. Hg (1016 hPa)
ob: KEND 150056Z AUTO 15015G19KT 10SM CLR 22/13 A3002 RMK AO2 SLP161 T02150126
cycle: 1

Station Type Date Time Source
KEND TAF 2021/05/14 18:21 UTC NOAA

TAF KEND 141800Z 1418/1524 17015G25KT 9999 SCT045 510062 QNH3002INS
BECMG 1500/1501 17009KT 9999 BKN050 510052 QNH3000INS
BECMG 1509/1510 16012KT 9999 SCT020 510052 QNH2998INS
BECMG 1520/1521 18015G20KT 9999 OVC035 510052 QNH2988INS TX25/1421Z TN15/1512Z

Example: see airport list